sensor_id;sensor_type;location;lat;lon;timestamp;P1;durP1;ratioP1;P2;durP2;ratioP2
13339;SDS011;6739;47.398;8.774;2022-09-16T00:01:41;4.97;;;3.70;;
13339;SDS011;6739;47.398;8.774;2022-09-16T00:04:09;4.80;;;4.10;;
13339;SDS011;6739;47.398;8.774;2022-09-16T00:06:37;4.03;;;3.63;;
13339;SDS011;6739;47.398;8.774;2022-09-16T00:09:04;4.10;;;3.60;;
13339;SDS011;6739;47.398;8.774;2022-09-16T00:11:32;4.20;;;3.57;;
13339;SDS011;6739;47.398;8.774;2022-09-16T00:13:59;7.23;;;3.97;;
13339;SDS011;6739;47.398;8.774;2022-09-16T00:16:28;5.93;;;3.50;;
13339;SDS011;6739;47.398;8.774;2022-09-16T00:18:57;3.90;;;3.50;;
13339;SDS011;6739;47.398;8.774;2022-09-16T00:21:25;4.93;;;3.70;;
13339;SDS011;6739;47.398;8.774;2022-09-16T00:23:53;4.30;;;3.90;;
13339;SDS011;6739;47.398;8.774;2022-09-16T00:26:21;3.93;;;3.50;;
13339;SDS011;6739;47.398;8.774;2022-09-16T00:28:50;3.60;;;3.23;;
13339;SDS011;6739;47.398;8.774;2022-09-16T00:31:17;3.73;;;3.50;;
13339;SDS011;6739;47.398;8.774;2022-09-16T00:33:46;3.80;;;3.33;;
13339;SDS011;6739;47.398;8.774;2022-09-16T00:36:15;3.90;;;3.67;;
13339;SDS011;6739;47.398;8.774;2022-09-16T00:38:43;4.07;;;3.77;;
13339;SDS011;6739;47.398;8.774;2022-09-16T00:41:11;3.97;;;3.77;;
13339;SDS011;6739;47.398;8.774;2022-09-16T00:43:45;4.60;;;4.30;;
13339;SDS011;6739;47.398;8.774;2022-09-16T00:46:13;5.17;;;4.77;;
13339;SDS011;6739;47.398;8.774;2022-09-16T00:48:41;5.03;;;4.53;;
13339;SDS011;6739;47.398;8.774;2022-09-16T00:51:10;5.83;;;5.30;;
13339;SDS011;6739;47.398;8.774;2022-09-16T00:53:40;6.10;;;5.60;;
13339;SDS011;6739;47.398;8.774;2022-09-16T00:56:09;5.70;;;5.20;;
13339;SDS011;6739;47.398;8.774;2022-09-16T00:58:38;6.43;;;5.83;;
13339;SDS011;6739;47.398;8.774;2022-09-16T01:01:07;5.53;;;5.13;;
13339;SDS011;6739;47.398;8.774;2022-09-16T01:03:37;6.00;;;5.50;;
13339;SDS011;6739;47.398;8.774;2022-09-16T01:06:07;5.93;;;5.33;;
13339;SDS011;6739;47.398;8.774;2022-09-16T01:08:37;5.97;;;5.47;;
13339;SDS011;6739;47.398;8.774;2022-09-16T01:11:04;6.33;;;5.77;;
13339;SDS011;6739;47.398;8.774;2022-09-16T01:13:32;6.30;;;5.63;;
13339;SDS011;6739;47.398;8.774;2022-09-16T01:16:01;5.73;;;5.23;;
13339;SDS011;6739;47.398;8.774;2022-09-16T01:18:34;5.67;;;5.17;;
13339;SDS011;6739;47.398;8.774;2022-09-16T01:21:13;5.57;;;5.17;;
13339;SDS011;6739;47.398;8.774;2022-09-16T01:23:54;5.40;;;4.93;;
13339;SDS011;6739;47.398;8.774;2022-09-16T01:26:34;5.30;;;4.80;;
13339;SDS011;6739;47.398;8.774;2022-09-16T01:29:12;5.40;;;5.00;;
13339;SDS011;6739;47.398;8.774;2022-09-16T01:31:50;5.13;;;4.73;;
13339;SDS011;6739;47.398;8.774;2022-09-16T01:34:22;4.77;;;4.40;;
13339;SDS011;6739;47.398;8.774;2022-09-16T01:36:55;5.33;;;4.90;;
13339;SDS011;6739;47.398;8.774;2022-09-16T01:39:27;5.80;;;5.30;;
13339;SDS011;6739;47.398;8.774;2022-09-16T01:42:00;6.10;;;5.50;;
13339;SDS011;6739;47.398;8.774;2022-09-16T01:44:31;5.50;;;4.97;;
13339;SDS011;6739;47.398;8.774;2022-09-16T01:47:06;5.33;;;4.93;;
13339;SDS011;6739;47.398;8.774;2022-09-16T01:49:38;6.33;;;5.80;;
13339;SDS011;6739;47.398;8.774;2022-09-16T01:52:12;6.17;;;5.43;;
13339;SDS011;6739;47.398;8.774;2022-09-16T01:54:42;5.57;;;5.07;;
13339;SDS011;6739;47.398;8.774;2022-09-16T01:57:12;5.53;;;5.07;;
13339;SDS011;6739;47.398;8.774;2022-09-16T01:59:43;5.47;;;5.07;;
13339;SDS011;6739;47.398;8.774;2022-09-16T02:02:14;6.00;;;5.47;;
13339;SDS011;6739;47.398;8.774;2022-09-16T02:04:45;6.00;;;5.57;;
13339;SDS011;6739;47.398;8.774;2022-09-16T02:07:15;5.67;;;5.27;;
13339;SDS011;6739;47.398;8.774;2022-09-16T02:09:44;5.60;;;5.10;;
13339;SDS011;6739;47.398;8.774;2022-09-16T02:12:15;5.77;;;5.30;;
13339;SDS011;6739;47.398;8.774;2022-09-16T02:14:44;6.37;;;5.80;;
13339;SDS011;6739;47.398;8.774;2022-09-16T02:17:15;5.70;;;5.20;;
13339;SDS011;6739;47.398;8.774;2022-09-16T02:19:45;5.30;;;4.87;;
13339;SDS011;6739;47.398;8.774;2022-09-16T02:22:21;5.30;;;4.80;;
13339;SDS011;6739;47.398;8.774;2022-09-16T02:24:49;5.30;;;4.80;;
13339;SDS011;6739;47.398;8.774;2022-09-16T02:27:18;5.30;;;4.90;;
13339;SDS011;6739;47.398;8.774;2022-09-16T02:29:49;5.47;;;5.07;;
13339;SDS011;6739;47.398;8.774;2022-09-16T02:32:20;5.73;;;5.33;;
13339;SDS011;6739;47.398;8.774;2022-09-16T02:34:49;5.90;;;5.37;;
13339;SDS011;6739;47.398;8.774;2022-09-16T02:37:20;5.63;;;5.03;;
13339;SDS011;6739;47.398;8.774;2022-09-16T02:39:49;6.17;;;5.67;;
13339;SDS011;6739;47.398;8.774;2022-09-16T02:42:21;5.60;;;5.17;;
13339;SDS011;6739;47.398;8.774;2022-09-16T02:44:48;5.87;;;5.20;;
13339;SDS011;6739;47.398;8.774;2022-09-16T02:47:16;6.40;;;5.80;;
13339;SDS011;6739;47.398;8.774;2022-09-16T02:49:51;6.40;;;5.80;;
13339;SDS011;6739;47.398;8.774;2022-09-16T02:52:21;6.40;;;5.80;;
13339;SDS011;6739;47.398;8.774;2022-09-16T02:54:52;6.80;;;6.20;;
13339;SDS011;6739;47.398;8.774;2022-09-16T02:57:22;6.83;;;6.33;;
13339;SDS011;6739;47.398;8.774;2022-09-16T02:59:50;6.47;;;5.87;;
13339;SDS011;6739;47.398;8.774;2022-09-16T03:02:17;6.23;;;5.83;;
13339;SDS011;6739;47.398;8.774;2022-09-16T03:04:45;7.00;;;6.40;;
13339;SDS011;6739;47.398;8.774;2022-09-16T03:07:14;6.83;;;6.20;;
13339;SDS011;6739;47.398;8.774;2022-09-16T03:09:43;7.00;;;6.37;;
13339;SDS011;6739;47.398;8.774;2022-09-16T03:12:14;5.97;;;5.47;;
13339;SDS011;6739;47.398;8.774;2022-09-16T03:14:47;5.80;;;5.40;;
13339;SDS011;6739;47.398;8.774;2022-09-16T03:17:22;5.17;;;4.77;;
13339;SDS011;6739;47.398;8.774;2022-09-16T03:19:58;5.87;;;5.00;;
13339;SDS011;6739;47.398;8.774;2022-09-16T03:22:29;5.00;;;4.60;;
13339;SDS011;6739;47.398;8.774;2022-09-16T03:25:05;4.90;;;4.50;;
13339;SDS011;6739;47.398;8.774;2022-09-16T03:27:35;7.77;;;5.43;;
13339;SDS011;6739;47.398;8.774;2022-09-16T03:30:05;6.53;;;5.93;;
13339;SDS011;6739;47.398;8.774;2022-09-16T03:32:34;8.80;;;5.33;;
13339;SDS011;6739;47.398;8.774;2022-09-16T03:35:04;6.50;;;5.00;;
13339;SDS011;6739;47.398;8.774;2022-09-16T03:37:35;5.77;;;5.27;;
13339;SDS011;6739;47.398;8.774;2022-09-16T03:40:06;6.50;;;5.40;;
13339;SDS011;6739;47.398;8.774;2022-09-16T03:42:36;6.47;;;5.80;;
13339;SDS011;6739;47.398;8.774;2022-09-16T03:45:04;5.97;;;5.47;;
13339;SDS011;6739;47.398;8.774;2022-09-16T03:47:32;5.10;;;4.70;;
13339;SDS011;6739;47.398;8.774;2022-09-16T03:49:59;5.20;;;4.77;;
13339;SDS011;6739;47.398;8.774;2022-09-16T03:52:28;5.30;;;4.90;;
13339;SDS011;6739;47.398;8.774;2022-09-16T03:54:56;5.30;;;4.90;;
13339;SDS011;6739;47.398;8.774;2022-09-16T03:57:24;6.63;;;4.67;;
13339;SDS011;6739;47.398;8.774;2022-09-16T03:59:52;4.87;;;4.30;;
13339;SDS011;6739;47.398;8.774;2022-09-16T04:02:20;7.30;;;4.90;;
13339;SDS011;6739;47.398;8.774;2022-09-16T04:04:47;6.10;;;5.60;;
13339;SDS011;6739;47.398;8.774;2022-09-16T04:07:15;6.53;;;5.93;;
13339;SDS011;6739;47.398;8.774;2022-09-16T04:09:42;6.93;;;5.90;;
13339;SDS011;6739;47.398;8.774;2022-09-16T04:12:11;4.77;;;4.17;;
13339;SDS011;6739;47.398;8.774;2022-09-16T04:14:39;3.93;;;3.53;;
13339;SDS011;6739;47.398;8.774;2022-09-16T04:17:06;5.13;;;4.33;;
13339;SDS011;6739;47.398;8.774;2022-09-16T04:19:34;3.43;;;3.13;;
13339;SDS011;6739;47.398;8.774;2022-09-16T04:22:01;4.80;;;3.83;;
13339;SDS011;6739;47.398;8.774;2022-09-16T04:24:29;3.77;;;3.47;;
13339;SDS011;6739;47.398;8.774;2022-09-16T04:26:57;7.63;;;4.43;;
13339;SDS011;6739;47.398;8.774;2022-09-16T04:29:25;4.43;;;4.03;;
13339;SDS011;6739;47.398;8.774;2022-09-16T04:31:53;4.80;;;4.40;;
13339;SDS011;6739;47.398;8.774;2022-09-16T04:34:20;4.07;;;3.77;;
13339;SDS011;6739;47.398;8.774;2022-09-16T04:36:48;3.83;;;3.53;;
13339;SDS011;6739;47.398;8.774;2022-09-16T04:39:15;3.93;;;3.53;;
13339;SDS011;6739;47.398;8.774;2022-09-16T04:41:43;3.70;;;3.40;;
13339;SDS011;6739;47.398;8.774;2022-09-16T04:44:10;3.77;;;3.40;;
13339;SDS011;6739;47.398;8.774;2022-09-16T04:46:40;3.70;;;3.47;;
13339;SDS011;6739;47.398;8.774;2022-09-16T04:49:08;3.67;;;3.20;;
13339;SDS011;6739;47.398;8.774;2022-09-16T04:51:37;3.50;;;3.20;;
13339;SDS011;6739;47.398;8.774;2022-09-16T04:54:04;4.70;;;4.30;;
13339;SDS011;6739;47.398;8.774;2022-09-16T04:56:32;3.47;;;3.27;;
13339;SDS011;6739;47.398;8.774;2022-09-16T04:59:00;4.53;;;4.20;;
13339;SDS011;6739;47.398;8.774;2022-09-16T05:01:28;5.07;;;4.63;;
13339;SDS011;6739;47.398;8.774;2022-09-16T05:03:59;6.20;;;4.30;;
13339;SDS011;6739;47.398;8.774;2022-09-16T05:06:27;5.57;;;4.07;;
13339;SDS011;6739;47.398;8.774;2022-09-16T05:08:55;4.03;;;3.73;;
13339;SDS011;6739;47.398;8.774;2022-09-16T05:11:24;5.03;;;4.53;;
13339;SDS011;6739;47.398;8.774;2022-09-16T05:13:52;3.90;;;3.60;;
13339;SDS011;6739;47.398;8.774;2022-09-16T05:16:20;4.00;;;3.60;;
13339;SDS011;6739;47.398;8.774;2022-09-16T05:18:49;4.87;;;4.37;;
13339;SDS011;6739;47.398;8.774;2022-09-16T05:21:18;5.20;;;4.70;;
13339;SDS011;6739;47.398;8.774;2022-09-16T05:23:46;4.30;;;3.97;;
13339;SDS011;6739;47.398;8.774;2022-09-16T05:26:16;4.10;;;3.80;;
13339;SDS011;6739;47.398;8.774;2022-09-16T05:28:44;5.30;;;4.80;;
13339;SDS011;6739;47.398;8.774;2022-09-16T05:31:12;4.97;;;4.47;;
13339;SDS011;6739;47.398;8.774;2022-09-16T05:33:41;5.47;;;4.00;;
13339;SDS011;6739;47.398;8.774;2022-09-16T05:36:10;5.03;;;4.50;;
13339;SDS011;6739;47.398;8.774;2022-09-16T05:38:40;4.67;;;4.27;;
13339;SDS011;6739;47.398;8.774;2022-09-16T05:41:07;4.13;;;3.83;;
13339;SDS011;6739;47.398;8.774;2022-09-16T05:43:35;6.43;;;4.33;;
13339;SDS011;6739;47.398;8.774;2022-09-16T05:46:03;5.00;;;4.60;;
13339;SDS011;6739;47.398;8.774;2022-09-16T05:48:31;4.83;;;4.43;;
13339;SDS011;6739;47.398;8.774;2022-09-16T05:51:00;5.67;;;5.27;;
13339;SDS011;6739;47.398;8.774;2022-09-16T05:53:28;4.87;;;4.47;;
13339;SDS011;6739;47.398;8.774;2022-09-16T05:55:58;5.23;;;4.83;;
13339;SDS011;6739;47.398;8.774;2022-09-16T05:58:26;5.20;;;4.80;;
13339;SDS011;6739;47.398;8.774;2022-09-16T06:00:57;5.30;;;4.90;;
13339;SDS011;6739;47.398;8.774;2022-09-16T06:03:24;5.17;;;4.63;;
13339;SDS011;6739;47.398;8.774;2022-09-16T06:05:57;6.70;;;6.10;;
13339;SDS011;6739;47.398;8.774;2022-09-16T06:08:25;7.53;;;6.93;;
13339;SDS011;6739;47.398;8.774;2022-09-16T06:10:52;5.47;;;5.03;;
13339;SDS011;6739;47.398;8.774;2022-09-16T06:13:21;6.67;;;6.13;;
13339;SDS011;6739;47.398;8.774;2022-09-16T06:15:49;5.33;;;4.93;;
13339;SDS011;6739;47.398;8.774;2022-09-16T06:18:18;5.90;;;5.40;;
13339;SDS011;6739;47.398;8.774;2022-09-16T06:20:46;4.73;;;4.33;;
13339;SDS011;6739;47.398;8.774;2022-09-16T06:23:13;5.20;;;4.37;;
13339;SDS011;6739;47.398;8.774;2022-09-16T06:25:41;5.97;;;4.53;;
13339;SDS011;6739;47.398;8.774;2022-09-16T06:28:09;4.97;;;4.57;;
13339;SDS011;6739;47.398;8.774;2022-09-16T06:30:38;5.40;;;4.40;;
13339;SDS011;6739;47.398;8.774;2022-09-16T06:33:06;6.53;;;4.80;;
13339;SDS011;6739;47.398;8.774;2022-09-16T06:35:35;3.73;;;3.43;;
13339;SDS011;6739;47.398;8.774;2022-09-16T06:38:03;3.70;;;3.10;;
13339;SDS011;6739;47.398;8.774;2022-09-16T06:40:30;3.50;;;3.20;;
13339;SDS011;6739;47.398;8.774;2022-09-16T06:42:58;3.00;;;2.80;;
13339;SDS011;6739;47.398;8.774;2022-09-16T06:45:25;3.87;;;2.73;;
13339;SDS011;6739;47.398;8.774;2022-09-16T06:47:58;4.00;;;3.70;;
13339;SDS011;6739;47.398;8.774;2022-09-16T06:50:26;3.97;;;3.40;;
13339;SDS011;6739;47.398;8.774;2022-09-16T06:52:53;4.50;;;4.10;;
13339;SDS011;6739;47.398;8.774;2022-09-16T06:55:21;6.83;;;4.20;;
13339;SDS011;6739;47.398;8.774;2022-09-16T06:57:48;6.43;;;3.70;;
13339;SDS011;6739;47.398;8.774;2022-09-16T07:00:16;8.00;;;4.40;;
13339;SDS011;6739;47.398;8.774;2022-09-16T07:02:44;4.00;;;3.70;;
13339;SDS011;6739;47.398;8.774;2022-09-16T07:05:12;4.67;;;4.37;;
13339;SDS011;6739;47.398;8.774;2022-09-16T07:07:40;4.77;;;4.37;;
13339;SDS011;6739;47.398;8.774;2022-09-16T07:10:08;3.60;;;3.40;;
13339;SDS011;6739;47.398;8.774;2022-09-16T07:12:36;4.37;;;3.97;;
13339;SDS011;6739;47.398;8.774;2022-09-16T07:15:04;4.60;;;4.23;;
13339;SDS011;6739;47.398;8.774;2022-09-16T07:17:32;5.10;;;4.60;;
13339;SDS011;6739;47.398;8.774;2022-09-16T07:19:59;4.23;;;3.87;;
13339;SDS011;6739;47.398;8.774;2022-09-16T07:22:30;4.70;;;4.40;;
13339;SDS011;6739;47.398;8.774;2022-09-16T07:24:58;4.43;;;4.13;;
13339;SDS011;6739;47.398;8.774;2022-09-16T07:27:25;4.10;;;3.80;;
13339;SDS011;6739;47.398;8.774;2022-09-16T07:29:52;4.63;;;4.23;;
13339;SDS011;6739;47.398;8.774;2022-09-16T07:32:21;4.37;;;3.97;;
13339;SDS011;6739;47.398;8.774;2022-09-16T07:34:48;4.20;;;3.90;;
13339;SDS011;6739;47.398;8.774;2022-09-16T07:37:16;3.70;;;3.47;;
13339;SDS011;6739;47.398;8.774;2022-09-16T07:39:45;4.00;;;3.70;;
13339;SDS011;6739;47.398;8.774;2022-09-16T07:42:13;4.07;;;3.77;;
13339;SDS011;6739;47.398;8.774;2022-09-16T07:44:40;4.03;;;3.70;;
13339;SDS011;6739;47.398;8.774;2022-09-16T07:47:08;4.40;;;4.03;;
13339;SDS011;6739;47.398;8.774;2022-09-16T07:49:35;4.97;;;4.30;;
13339;SDS011;6739;47.398;8.774;2022-09-16T07:52:03;4.60;;;4.10;;
13339;SDS011;6739;47.398;8.774;2022-09-16T07:54:30;6.47;;;3.97;;
13339;SDS011;6739;47.398;8.774;2022-09-16T07:56:59;4.33;;;3.93;;
13339;SDS011;6739;47.398;8.774;2022-09-16T07:59:27;4.60;;;4.13;;
13339;SDS011;6739;47.398;8.774;2022-09-16T08:01:54;4.43;;;4.10;;
13339;SDS011;6739;47.398;8.774;2022-09-16T08:04:21;4.47;;;4.07;;
13339;SDS011;6739;47.398;8.774;2022-09-16T08:06:49;4.80;;;3.53;;
13339;SDS011;6739;47.398;8.774;2022-09-16T08:09:16;5.67;;;3.37;;
13339;SDS011;6739;47.398;8.774;2022-09-16T08:11:44;3.70;;;3.13;;
13339;SDS011;6739;47.398;8.774;2022-09-16T08:14:13;4.30;;;3.90;;
13339;SDS011;6739;47.398;8.774;2022-09-16T08:16:40;3.40;;;3.10;;
13339;SDS011;6739;47.398;8.774;2022-09-16T08:19:08;3.17;;;2.97;;
13339;SDS011;6739;47.398;8.774;2022-09-16T08:21:36;4.27;;;3.33;;
13339;SDS011;6739;47.398;8.774;2022-09-16T08:24:03;7.37;;;2.87;;
13339;SDS011;6739;47.398;8.774;2022-09-16T08:26:31;4.10;;;2.77;;
13339;SDS011;6739;47.398;8.774;2022-09-16T08:28:58;2.97;;;2.60;;
13339;SDS011;6739;47.398;8.774;2022-09-16T08:31:27;2.50;;;2.30;;
13339;SDS011;6739;47.398;8.774;2022-09-16T08:33:55;3.40;;;2.30;;
13339;SDS011;6739;47.398;8.774;2022-09-16T08:36:23;3.03;;;2.60;;
13339;SDS011;6739;47.398;8.774;2022-09-16T08:38:51;3.57;;;2.50;;
13339;SDS011;6739;47.398;8.774;2022-09-16T08:41:25;3.97;;;2.37;;
13339;SDS011;6739;47.398;8.774;2022-09-16T08:43:57;2.93;;;2.50;;
13339;SDS011;6739;47.398;8.774;2022-09-16T08:46:29;2.67;;;2.47;;
13339;SDS011;6739;47.398;8.774;2022-09-16T08:49:02;3.60;;;2.50;;
13339;SDS011;6739;47.398;8.774;2022-09-16T08:51:32;2.83;;;2.63;;
13339;SDS011;6739;47.398;8.774;2022-09-16T08:54:01;2.70;;;2.47;;
13339;SDS011;6739;47.398;8.774;2022-09-16T08:56:30;3.80;;;2.77;;
13339;SDS011;6739;47.398;8.774;2022-09-16T08:59:01;4.43;;;2.40;;
13339;SDS011;6739;47.398;8.774;2022-09-16T09:01:37;2.60;;;2.40;;
13339;SDS011;6739;47.398;8.774;2022-09-16T09:04:07;3.00;;;2.50;;
13339;SDS011;6739;47.398;8.774;2022-09-16T09:06:50;2.63;;;2.43;;
13339;SDS011;6739;47.398;8.774;2022-09-16T09:09:25;5.03;;;2.77;;
13339;SDS011;6739;47.398;8.774;2022-09-16T09:11:58;4.17;;;2.50;;
13339;SDS011;6739;47.398;8.774;2022-09-16T09:14:31;3.63;;;2.63;;
13339;SDS011;6739;47.398;8.774;2022-09-16T09:17:05;2.93;;;2.63;;
13339;SDS011;6739;47.398;8.774;2022-09-16T09:19:39;2.60;;;2.40;;
13339;SDS011;6739;47.398;8.774;2022-09-16T09:22:12;2.40;;;2.20;;
13339;SDS011;6739;47.398;8.774;2022-09-16T09:24:46;3.03;;;2.57;;
13339;SDS011;6739;47.398;8.774;2022-09-16T09:27:19;2.90;;;2.60;;
13339;SDS011;6739;47.398;8.774;2022-09-16T09:32:44;3.33;;;2.47;;
13339;SDS011;6739;47.398;8.774;2022-09-16T09:35:24;2.97;;;2.70;;
13339;SDS011;6739;47.398;8.774;2022-09-16T09:38:04;3.10;;;2.77;;
13339;SDS011;6739;47.398;8.774;2022-09-16T09:40:38;6.10;;;3.83;;
13339;SDS011;6739;47.398;8.774;2022-09-16T09:43:08;3.13;;;2.70;;
13339;SDS011;6739;47.398;8.774;2022-09-16T09:45:37;3.97;;;2.63;;
13339;SDS011;6739;47.398;8.774;2022-09-16T09:48:12;2.50;;;2.30;;
13339;SDS011;6739;47.398;8.774;2022-09-16T09:50:42;2.40;;;2.20;;
13339;SDS011;6739;47.398;8.774;2022-09-16T09:53:11;2.80;;;2.60;;
13339;SDS011;6739;47.398;8.774;2022-09-16T09:55:40;4.27;;;2.43;;
13339;SDS011;6739;47.398;8.774;2022-09-16T09:58:10;2.30;;;2.10;;
13339;SDS011;6739;47.398;8.774;2022-09-16T10:00:41;2.47;;;2.27;;
13339;SDS011;6739;47.398;8.774;2022-09-16T10:03:11;2.57;;;2.37;;
13339;SDS011;6739;47.398;8.774;2022-09-16T10:05:39;2.10;;;2.00;;
13339;SDS011;6739;47.398;8.774;2022-09-16T10:08:11;2.33;;;2.13;;
13339;SDS011;6739;47.398;8.774;2022-09-16T10:10:40;3.90;;;2.30;;
13339;SDS011;6739;47.398;8.774;2022-09-16T10:13:10;2.73;;;2.17;;
13339;SDS011;6739;47.398;8.774;2022-09-16T10:15:38;3.20;;;2.90;;
13339;SDS011;6739;47.398;8.774;2022-09-16T10:18:09;3.47;;;3.17;;
13339;SDS011;6739;47.398;8.774;2022-09-16T10:20:39;2.90;;;2.63;;
13339;SDS011;6739;47.398;8.774;2022-09-16T10:23:09;4.60;;;3.03;;
13339;SDS011;6739;47.398;8.774;2022-09-16T10:25:37;4.37;;;3.00;;
13339;SDS011;6739;47.398;8.774;2022-09-16T10:28:15;3.97;;;2.93;;
13339;SDS011;6739;47.398;8.774;2022-09-16T10:30:45;3.90;;;3.60;;
13339;SDS011;6739;47.398;8.774;2022-09-16T10:33:16;4.00;;;3.33;;
13339;SDS011;6739;47.398;8.774;2022-09-16T10:35:50;3.63;;;3.33;;
13339;SDS011;6739;47.398;8.774;2022-09-16T10:38:20;14.40;;;3.60;;
13339;SDS011;6739;47.398;8.774;2022-09-16T10:40:52;3.97;;;3.67;;
13339;SDS011;6739;47.398;8.774;2022-09-16T10:43:20;5.00;;;4.20;;
13339;SDS011;6739;47.398;8.774;2022-09-16T10:45:49;5.23;;;4.73;;
13339;SDS011;6739;47.398;8.774;2022-09-16T10:48:18;5.30;;;4.80;;
13339;SDS011;6739;47.398;8.774;2022-09-16T10:50:53;5.63;;;5.13;;
13339;SDS011;6739;47.398;8.774;2022-09-16T10:53:33;5.20;;;4.80;;
13339;SDS011;6739;47.398;8.774;2022-09-16T10:56:01;5.07;;;4.60;;
13339;SDS011;6739;47.398;8.774;2022-09-16T10:58:29;5.60;;;5.10;;
13339;SDS011;6739;47.398;8.774;2022-09-16T11:01:03;5.83;;;5.33;;
13339;SDS011;6739;47.398;8.774;2022-09-16T11:03:51;5.50;;;5.00;;
13339;SDS011;6739;47.398;8.774;2022-09-16T11:06:26;5.40;;;5.00;;
13339;SDS011;6739;47.398;8.774;2022-09-16T11:09:00;6.93;;;5.20;;
13339;SDS011;6739;47.398;8.774;2022-09-16T11:11:38;6.10;;;5.30;;
13339;SDS011;6739;47.398;8.774;2022-09-16T11:14:10;6.00;;;5.50;;
13339;SDS011;6739;47.398;8.774;2022-09-16T11:16:44;5.87;;;5.37;;
13339;SDS011;6739;47.398;8.774;2022-09-16T11:19:18;5.80;;;5.23;;
13339;SDS011;6739;47.398;8.774;2022-09-16T11:21:49;5.77;;;5.20;;
13339;SDS011;6739;47.398;8.774;2022-09-16T11:27:11;6.20;;;5.60;;
13339;SDS011;6739;47.398;8.774;2022-09-16T11:29:48;5.73;;;5.23;;
13339;SDS011;6739;47.398;8.774;2022-09-16T11:32:19;5.77;;;5.27;;
13339;SDS011;6739;47.398;8.774;2022-09-16T11:34:55;5.43;;;5.03;;
13339;SDS011;6739;47.398;8.774;2022-09-16T11:37:27;5.80;;;5.30;;
13339;SDS011;6739;47.398;8.774;2022-09-16T11:39:59;5.80;;;5.20;;
13339;SDS011;6739;47.398;8.774;2022-09-16T11:42:29;5.83;;;5.33;;
13339;SDS011;6739;47.398;8.774;2022-09-16T11:45:00;6.30;;;5.70;;
13339;SDS011;6739;47.398;8.774;2022-09-16T11:47:44;7.87;;;5.77;;
13339;SDS011;6739;47.398;8.774;2022-09-16T11:50:18;8.77;;;5.73;;
13339;SDS011;6739;47.398;8.774;2022-09-16T11:53:01;5.77;;;5.37;;
13339;SDS011;6739;47.398;8.774;2022-09-16T11:55:37;6.60;;;5.90;;
13339;SDS011;6739;47.398;8.774;2022-09-16T11:58:14;6.68;;;6.10;;
13339;SDS011;6739;47.398;8.774;2022-09-16T12:00:44;6.20;;;5.70;;
13339;SDS011;6739;47.398;8.774;2022-09-16T12:03:16;6.53;;;6.00;;
13339;SDS011;6739;47.398;8.774;2022-09-16T12:05:46;6.67;;;6.07;;
13339;SDS011;6739;47.398;8.774;2022-09-16T12:08:18;6.40;;;5.90;;
13339;SDS011;6739;47.398;8.774;2022-09-16T12:10:48;6.30;;;5.80;;
13339;SDS011;6739;47.398;8.774;2022-09-16T12:13:17;6.57;;;5.97;;
13339;SDS011;6739;47.398;8.774;2022-09-16T12:15:47;6.97;;;5.90;;
13339;SDS011;6739;47.398;8.774;2022-09-16T12:18:16;6.93;;;5.83;;
13339;SDS011;6739;47.398;8.774;2022-09-16T12:20:46;5.97;;;5.47;;
13339;SDS011;6739;47.398;8.774;2022-09-16T12:23:16;6.23;;;5.63;;
13339;SDS011;6739;47.398;8.774;2022-09-16T12:25:45;7.50;;;6.27;;
13339;SDS011;6739;47.398;8.774;2022-09-16T12:28:15;6.80;;;6.13;;
13339;SDS011;6739;47.398;8.774;2022-09-16T12:30:44;6.77;;;6.23;;
13339;SDS011;6739;47.398;8.774;2022-09-16T12:33:13;6.37;;;5.80;;
13339;SDS011;6739;47.398;8.774;2022-09-16T12:35:44;6.43;;;5.83;;
13339;SDS011;6739;47.398;8.774;2022-09-16T12:38:16;6.73;;;5.57;;
13339;SDS011;6739;47.398;8.774;2022-09-16T12:40:49;6.43;;;5.83;;
13339;SDS011;6739;47.398;8.774;2022-09-16T12:49:03;5.23;;;4.73;;
13339;SDS011;6739;47.398;8.774;2022-09-16T12:51:39;5.07;;;4.57;;
13339;SDS011;6739;47.398;8.774;2022-09-16T12:54:19;4.70;;;4.37;;
13339;SDS011;6739;47.398;8.774;2022-09-16T12:56:57;4.27;;;3.87;;
13339;SDS011;6739;47.398;8.774;2022-09-16T12:59:43;5.37;;;4.10;;
13339;SDS011;6739;47.398;8.774;2022-09-16T13:02:14;4.47;;;3.27;;
13339;SDS011;6739;47.398;8.774;2022-09-16T13:04:43;4.57;;;3.50;;
13339;SDS011;6739;47.398;8.774;2022-09-16T13:07:16;3.93;;;3.53;;
13339;SDS011;6739;47.398;8.774;2022-09-16T13:09:47;4.27;;;3.87;;
13339;SDS011;6739;47.398;8.774;2022-09-16T13:12:18;3.87;;;3.57;;
13339;SDS011;6739;47.398;8.774;2022-09-16T13:14:48;4.73;;;4.20;;
13339;SDS011;6739;47.398;8.774;2022-09-16T13:17:25;3.90;;;3.50;;
13339;SDS011;6739;47.398;8.774;2022-09-16T13:19:53;4.70;;;4.30;;
13339;SDS011;6739;47.398;8.774;2022-09-16T13:22:22;4.30;;;3.70;;
13339;SDS011;6739;47.398;8.774;2022-09-16T13:24:54;4.10;;;3.70;;
13339;SDS011;6739;47.398;8.774;2022-09-16T13:27:24;4.00;;;3.50;;
13339;SDS011;6739;47.398;8.774;2022-09-16T13:29:52;7.53;;;6.93;;
13339;SDS011;6739;47.398;8.774;2022-09-16T13:32:36;14.83;;;13.40;;
13339;SDS011;6739;47.398;8.774;2022-09-16T13:35:05;5.97;;;5.47;;
13339;SDS011;6739;47.398;8.774;2022-09-16T13:37:47;7.73;;;6.87;;
13339;SDS011;6739;47.398;8.774;2022-09-16T13:40:18;5.23;;;4.43;;
13339;SDS011;6739;47.398;8.774;2022-09-16T13:42:46;7.60;;;6.90;;
13339;SDS011;6739;47.398;8.774;2022-09-16T13:45:29;6.03;;;5.43;;
13339;SDS011;6739;47.398;8.774;2022-09-16T13:47:57;4.73;;;4.23;;
13339;SDS011;6739;47.398;8.774;2022-09-16T13:50:26;4.30;;;4.00;;
13339;SDS011;6739;47.398;8.774;2022-09-16T13:52:54;4.20;;;3.90;;
13339;SDS011;6739;47.398;8.774;2022-09-16T13:55:23;4.23;;;3.83;;
13339;SDS011;6739;47.398;8.774;2022-09-16T13:57:54;4.30;;;3.90;;
13339;SDS011;6739;47.398;8.774;2022-09-16T14:00:24;3.87;;;3.57;;
13339;SDS011;6739;47.398;8.774;2022-09-16T14:05:48;4.57;;;4.17;;
13339;SDS011;6739;47.398;8.774;2022-09-16T14:08:19;7.00;;;6.40;;
13339;SDS011;6739;47.398;8.774;2022-09-16T14:10:53;4.33;;;4.03;;
13339;SDS011;6739;47.398;8.774;2022-09-16T14:13:22;4.20;;;3.70;;
13339;SDS011;6739;47.398;8.774;2022-09-16T14:15:51;4.30;;;4.00;;
13339;SDS011;6739;47.398;8.774;2022-09-16T14:18:21;4.87;;;4.33;;
13339;SDS011;6739;47.398;8.774;2022-09-16T14:20:51;3.70;;;3.23;;
13339;SDS011;6739;47.398;8.774;2022-09-16T14:23:19;4.03;;;3.10;;
13339;SDS011;6739;47.398;8.774;2022-09-16T14:25:46;2.87;;;2.63;;
13339;SDS011;6739;47.398;8.774;2022-09-16T14:28:18;3.00;;;2.77;;
13339;SDS011;6739;47.398;8.774;2022-09-16T14:30:47;2.80;;;2.60;;
13339;SDS011;6739;47.398;8.774;2022-09-16T14:33:14;3.03;;;2.60;;
13339;SDS011;6739;47.398;8.774;2022-09-16T14:35:43;2.60;;;2.40;;
13339;SDS011;6739;47.398;8.774;2022-09-16T14:38:12;3.33;;;2.20;;
13339;SDS011;6739;47.398;8.774;2022-09-16T14:40:41;4.47;;;2.80;;
13339;SDS011;6739;47.398;8.774;2022-09-16T14:43:11;3.60;;;2.60;;
13339;SDS011;6739;47.398;8.774;2022-09-16T14:45:43;2.80;;;2.53;;
13339;SDS011;6739;47.398;8.774;2022-09-16T14:48:11;2.50;;;2.30;;
13339;SDS011;6739;47.398;8.774;2022-09-16T14:50:40;2.47;;;2.27;;
13339;SDS011;6739;47.398;8.774;2022-09-16T14:53:26;3.93;;;2.50;;
13339;SDS011;6739;47.398;8.774;2022-09-16T14:55:54;2.67;;;2.27;;
13339;SDS011;6739;47.398;8.774;2022-09-16T14:58:24;4.40;;;2.73;;
13339;SDS011;6739;47.398;8.774;2022-09-16T15:00:54;2.53;;;2.30;;
13339;SDS011;6739;47.398;8.774;2022-09-16T15:03:25;2.93;;;2.50;;
13339;SDS011;6739;47.398;8.774;2022-09-16T15:05:54;2.70;;;2.50;;
13339;SDS011;6739;47.398;8.774;2022-09-16T15:08:25;2.77;;;2.57;;
13339;SDS011;6739;47.398;8.774;2022-09-16T15:10:56;2.67;;;2.40;;
13339;SDS011;6739;47.398;8.774;2022-09-16T15:13:24;2.50;;;2.30;;
13339;SDS011;6739;47.398;8.774;2022-09-16T15:15:54;2.47;;;2.27;;
13339;SDS011;6739;47.398;8.774;2022-09-16T15:18:25;2.87;;;2.50;;
13339;SDS011;6739;47.398;8.774;2022-09-16T15:20:55;2.90;;;2.70;;
13339;SDS011;6739;47.398;8.774;2022-09-16T15:23:24;2.37;;;2.17;;
13339;SDS011;6739;47.398;8.774;2022-09-16T15:25:53;2.40;;;2.00;;
13339;SDS011;6739;47.398;8.774;2022-09-16T15:28:22;3.13;;;2.27;;
13339;SDS011;6739;47.398;8.774;2022-09-16T15:30:51;2.40;;;2.20;;
13339;SDS011;6739;47.398;8.774;2022-09-16T15:33:25;2.57;;;2.20;;